| time (UTC) | temp C | wind direction | speed KPH | gust KPH | rain 1hr cm | rain 24hr cm | rain mn cm | humidity % | barometer mb |
| 20260507090309 | 8 | 0 | 0.0 | 1.6 | 0.00 | 0.00 | 0.00 | 84 | 1022.9 |
| 20260507085411 | 8 | 0 | 0.0 | 9.7 | 0.00 | 0.00 | 0.00 | 85 | 1023.0 |
| 20260507084809 | 8 | 0 | 0.0 | 9.7 | 0.00 | 0.00 | 0.00 | 85 | 1022.9 |
| 20260507083911 | 8 | 0 | 0.0 | 0.0 | 0.00 | 0.00 | 0.00 | 85 | 1022.8 |
| 20260507083309 | 8 | 0 | 0.0 | 0.0 | 0.00 | 0.00 | 0.00 | 85 | 1022.8 |
| 20260507082411 | 8 | 0 | 0.0 | 12.9 | 0.00 | 0.00 | 0.00 | 85 | 1022.9 |
| 20260507081809 | 8 | 0 | 0.0 | 12.9 | 0.00 | 0.00 | 0.00 | 85 | 1022.9 |
| 20260507080911 | 8 | 0 | 0.0 | 6.4 | 0.00 | 0.00 | 0.00 | 84 | 1023.0 |
| 20260507080309 | 8 | 0 | 0.0 | 6.4 | 0.00 | 0.00 | 0.00 | 84 | 1022.9 |
| 20260507075411 | 8 | 0 | 0.0 | 14.5 | 0.00 | 0.00 | 0.00 | 84 | 1023.0 |
| 20260507074809 | 8 | 0 | 0.0 | 6.4 | 0.00 | 0.00 | 0.00 | 84 | 1023.0 |
| 20260507073911 | 9 | 0 | 0.0 | 3.2 | 0.00 | 0.00 | 0.00 | 84 | 1022.9 |
| 20260507073309 | 9 | 0 | 0.0 | 3.2 | 0.00 | 0.00 | 0.00 | 84 | 1022.9 |
| 20260507072411 | 9 | 0 | 0.0 | 16.1 | 0.00 | 0.00 | 0.00 | 84 | 1022.8 |
| 20260507071809 | 9 | 0 | 0.0 | 16.1 | 0.00 | 0.00 | 0.00 | 84 | 1022.8 |
| 20260507070911 | 9 | 0 | 0.0 | 12.9 | 0.00 | 0.00 | 0.00 | 84 | 1022.7 |
| 20260507070309 | 9 | 0 | 0.0 | 3.2 | 0.00 | 0.00 | 0.00 | 85 | 1022.7 |
| 20260507065410 | 9 | 0 | 0.0 | 19.3 | 0.00 | 0.00 | 0.00 | 85 | 1022.7 |
| 20260507064809 | 9 | 0 | 0.0 | 19.3 | 0.00 | 0.00 | 0.00 | 85 | 1022.6 |
| 20260507063910 | 9 | 0 | 0.0 | 14.5 | 0.00 | 0.00 | 0.00 | 85 | 1022.7 |
| 20260507063309 | 9 | 276 | 4.8 | 14.5 | 0.00 | 0.00 | 0.00 | 86 | 1022.8 |
| 20260507062411 | 9 | 279 | 1.6 | 16.1 | 0.00 | 0.00 | 0.00 | 86 | 1022.8 |
| 20260507061809 | 9 | 283 | 9.7 | 16.1 | 0.00 | 0.00 | 0.00 | 86 | 1022.9 |
| 20260507060911 | 9 | 0 | 0.0 | 11.3 | 0.00 | 0.00 | 0.00 | 87 | 1022.8 |
| 20260507060309 | 9 | 0 | 0.0 | 3.2 | 0.00 | 0.00 | 0.00 | 87 | 1022.8 |
| 20260507055410 | 10 | 0 | 0.0 | 16.1 | 0.00 | 0.00 | 0.00 | 87 | 1022.8 |
| 20260507054809 | 10 | 263 | 3.2 | 16.1 | 0.00 | 0.00 | 0.00 | 87 | 1022.8 |
| 20260507053911 | 10 | 0 | 0.0 | 16.1 | 0.00 | 0.00 | 0.00 | 87 | 1022.7 |
| 20260507053309 | 10 | 241 | 1.6 | 12.9 | 0.00 | 0.00 | 0.00 | 87 | 1022.9 |
| 20260507052411 | 10 | 276 | 6.4 | 19.3 | 0.00 | 0.00 | 0.00 | 87 | 1023.1 |
| 20260507051809 | 10 | 0 | 0.0 | 19.3 | 0.00 | 0.00 | 0.00 | 87 | 1023.0 |
| 20260507050910 | 10 | 267 | 12.9 | 19.3 | 0.00 | 0.00 | 0.00 | 87 | 1023.1 |
| 20260507050309 | 10 | 284 | 9.7 | 19.3 | 0.00 | 0.00 | 0.00 | 87 | 1023.1 |
| 20260507045410 | 10 | 266 | 17.7 | 19.3 | 0.00 | 0.00 | 0.00 | 87 | 1023.3 |
| 20260507044809 | 10 | 0 | 0.0 | 17.7 | 0.00 | 0.00 | 0.00 | 87 | 1023.2 |
| 20260507043910 | 10 | 0 | 0.0 | 17.7 | 0.00 | 0.00 | 0.00 | 87 | 1023.1 |
| 20260507043309 | 10 | 243 | 8.0 | 17.7 | 0.00 | 0.00 | 0.00 | 87 | 1023.2 |
| 20260507042410 | 10 | 244 | 3.2 | 17.7 | 0.00 | 0.00 | 0.00 | 87 | 1023.0 |
| 20260507041809 | 10 | 0 | 0.0 | 17.7 | 0.00 | 0.00 | 0.00 | 87 | 1023.1 |
| 20260507040910 | 10 | 250 | 3.2 | 16.1 | 0.00 | 0.00 | 0.00 | 87 | 1022.9 |
| 20260507040309 | 10 | 253 | 14.5 | 16.1 | 0.00 | 0.00 | 0.00 | 86 | 1022.9 |
| 20260507035411 | 10 | 0 | 0.0 | 22.5 | 0.00 | 0.00 | 0.00 | 86 | 1023.0 |
| 20260507034809 | 10 | 0 | 0.0 | 22.5 | 0.00 | 0.00 | 0.00 | 86 | 1023.0 |
| 20260507033910 | 10 | 0 | 0.0 | 22.5 | 0.00 | 0.00 | 0.00 | 86 | 1022.9 |
| 20260507033309 | 10 | 286 | 6.4 | 22.5 | 0.00 | 0.00 | 0.00 | 86 | 1023.0 |
| 20260506125411 | 10 | 207 | 1.6 | 1.6 | 0.00 | 0.03 | 0.00 | 88 | 1020.7 |
| 20260506124810 | 10 | 0 | 0.0 | 0.0 | 0.00 | 0.03 | 0.00 | 88 | 1020.6 |
| 20260506123911 | 10 | 0 | 0.0 | 4.8 | 0.00 | 0.03 | 0.00 | 88 | 1020.7 |
| 20260506123310 | 10 | 0 | 0.0 | 0.0 | 0.00 | 0.03 | 0.00 | 88 | 1020.5 |
| 20260506122411 | 10 | 0 | 0.0 | 0.0 | 0.00 | 0.03 | 0.00 | 88 | 1020.4 |
| 20260506121810 | 10 | 0 | 0.0 | 0.0 | 0.00 | 0.03 | 0.00 | 88 | 1020.5 |
| 20260506120911 | 10 | 0 | 0.0 | 0.0 | 0.00 | 0.03 | 0.00 | 88 | 1020.3 |
| 20260506120309 | 10 | 0 | 0.0 | 0.0 | 0.00 | 0.03 | 0.00 | 88 | 1020.3 |
| 20260506115411 | 10 | 0 | 0.0 | 4.8 | 0.00 | 0.03 | 0.00 | 88 | 1020.3 |
| 20260506114810 | 10 | 0 | 0.0 | 4.8 | 0.00 | 0.03 | 0.00 | 88 | 1020.3 |
| 20260506113911 | 10 | 0 | 0.0 | 0.0 | 0.00 | 0.03 | 0.00 | 88 | 1020.2 |
| 20260506113309 | 10 | 0 | 0.0 | 0.0 | 0.00 | 0.03 | 0.00 | 88 | 1020.1 |
| 20260506112412 | 10 | 0 | 0.0 | 11.3 | 0.00 | 0.03 | 0.00 | 88 | 1020.2 |
| 20260506111809 | 10 | 0 | 0.0 | 11.3 | 0.00 | 0.03 | 0.00 | 88 | 1020.2 |
| 20260506110911 | 10 | 0 | 0.0 | 11.3 | 0.00 | 0.03 | 0.00 | 88 | 1020.1 |
| 20260506110309 | 10 | 0 | 0.0 | 11.3 | 0.00 | 0.03 | 0.00 | 88 | 1020.1 |
| 20260506105411 | 10 | 0 | 0.0 | 3.2 | 0.00 | 0.03 | 0.00 | 88 | 1019.9 |
| 20260506104809 | 10 | 0 | 0.0 | 3.2 | 0.00 | 0.03 | 0.00 | 88 | 1019.8 |
| 20260506103911 | 10 | 0 | 0.0 | 3.2 | 0.00 | 0.03 | 0.00 | 88 | 1019.8 |
| 20260506103309 | 10 | 0 | 0.0 | 3.2 | 0.00 | 0.03 | 0.00 | 88 | 1019.7 |
| 20260506102410 | 10 | 0 | 0.0 | 14.5 | 0.00 | 0.03 | 0.00 | 88 | 1019.7 |
| 20260506101809 | 10 | 0 | 0.0 | 14.5 | 0.00 | 0.03 | 0.00 | 88 | 1019.6 |
| 20260506100911 | 10 | 0 | 0.0 | 14.5 | 0.00 | 0.03 | 0.00 | 88 | 1019.6 |
| 20260506100309 | 10 | 0 | 0.0 | 14.5 | 0.00 | 0.03 | 0.00 | 88 | 1019.5 |
| 20260506095410 | 10 | 0 | 0.0 | 11.3 | 0.00 | 0.03 | 0.00 | 88 | 1019.5 |
| 20260506094809 | 10 | 0 | 0.0 | 11.3 | 0.00 | 0.03 | 0.00 | 88 | 1019.5 |
| 20260506093912 | 10 | 0 | 0.0 | 4.8 | 0.00 | 0.03 | 0.00 | 88 | 1019.4 |
| 20260506093309 | 10 | 0 | 0.0 | 1.6 | 0.00 | 0.03 | 0.00 | 88 | 1019.4 |
| 20260506092411 | 10 | 0 | 0.0 | 16.1 | 0.00 | 0.03 | 0.00 | 88 | 1019.4 |
| 20260506091809 | 10 | 0 | 0.0 | 16.1 | 0.00 | 0.03 | 0.00 | 88 | 1019.4 |
| 20260506090911 | 10 | 247 | 6.4 | 14.5 | 0.00 | 0.03 | 0.00 | 88 | 1019.3 |